Latest Weather Observations for Kowen Forest

IDN60901

Issued at 2:31 pm EST Thursday 1 October 2020 (issued every 10 minutes, with the page automatically refreshed every 10 minutes)

About weather observations | Map of Canberra area stations | Latest observations for Canberra area | Other Formats
Station Details ID: 250071 Name: KOWEN FOREST (PCS) Lat: -35.31 Lon: 149.32 Height: 720.0 m

Portable automatic weather stations (PAWS) are operated by other organisations, such as Fire and Emergency Services, and are included here by agreement. Portable stations may be deployed to a location for a short period and their location may be subject to change without notice. Wind observations from these stations are provided from heights of either three (3) or ten (10) metres above ground level (AGL).

Data from the previous 72 hours. | See also: Recent months for locations in Aust Capital Territory
Date/Time
EST
Temp
°C
App
Temp
°C
Dew
Point
°C
Rel
Hum
%
Delta-T
°C
Wind Press
QNH
hPa
Press
MSL
hPa
Rain since
9am
mm
Dir  Spd
km/h
Gust
km/h
Spd
kts
Gust
kts
01/02:20pm 15.3 8.4 2.7 42 5.9 WNW 28 33 15 18 - - 0.0
01/02:10pm 15.0 7.4 2.9 44 5.7 WNW 32 35 17 19 - - 0.0
01/02:00pm 15.1 7.4 2.5 42 5.9 WNW 32 37 17 20 - - 0.0
01/01:50pm 15.2 8.2 4.3 48 5.3 WNW 30 35 16 19 - - 0.0
01/01:40pm 15.2 7.6 3.1 44 5.7 WNW 32 39 17 21 - - 0.0
01/01:30pm 14.9 6.2 1.9 41 6.0 WNW 37 41 20 22 - - 0.0
01/01:20pm 14.8 6.8 3.8 47 5.2 WNW 35 37 19 20 - - 0.0
01/01:10pm 14.8 6.5 1.9 41 5.9 WNW 35 41 19 22 - - 0.0
01/01:00pm 14.9 7.3 2.7 44 5.7 WNW 32 41 17 22 - - 0.0
01/12:50pm 14.7 6.2 2.9 45 5.5 WNW 37 43 20 23 - - 0.0
01/12:40pm 14.7 6.4 2.4 43 5.7 WNW 35 43 19 23 - - 0.0
01/12:30pm 14.7 6.8 2.5 43 5.7 WNW 33 37 18 20 - - 0.0
01/12:20pm 14.5 7.9 4.0 49 5.0 WNW 28 35 15 19 - - 0.0
01/12:10pm 14.7 8.0 3.8 48 5.2 WNW 28 35 15 19 - - 0.0
01/12:00pm 14.4 6.6 2.8 45 5.4 WNW 33 39 18 21 - - 0.0
01/11:50am 14.5 7.0 3.2 46 5.3 WNW 32 35 17 19 - - 0.0
01/11:40am 14.7 8.8 4.1 49 5.1 W 24 30 13 16 - - 0.0
01/11:30am 14.5 8.0 4.6 51 4.8 W 28 33 15 18 - - 0.0
01/11:20am 14.2 6.6 2.9 46 5.3 WNW 32 37 17 20 - - 0.0
01/11:10am 14.2 6.5 2.3 44 5.5 WNW 32 37 17 20 - - 0.0
01/11:00am 14.2 6.4 2.8 46 5.3 WNW 33 37 18 20 - - 0.0
01/10:50am 14.5 7.8 3.6 48 5.2 WNW 28 33 15 18 - - 0.0
01/10:40am 14.2 6.4 3.0 47 5.2 W 33 41 18 22 - - 0.0
01/10:30am 14.1 5.7 1.3 41 5.8 W 35 39 19 21 - - 0.0
01/10:20am 14.0 5.9 1.3 42 5.7 W 33 41 18 22 - - 0.0
01/10:10am 14.0 5.6 1.4 42 5.7 W 35 37 19 20 - - 0.0
01/10:00am 14.0 6.1 2.2 45 5.4 W 33 41 18 22 - - 0.0
01/09:50am 14.0 7.3 3.5 49 4.9 W 28 33 15 18 - - 0.0
01/09:40am 13.8 7.0 3.2 48 4.9 W 28 32 15 17 - - 0.0
01/09:30am 13.5 6.9 4.1 53 4.5 W 28 30 15 16 - - 0.0
01/09:20am 13.2 6.4 3.3 51 4.6 W 28 33 15 18 - - 0.0
01/09:10am 13.1 6.1 4.1 54 4.3 W 30 32 16 17 - - 0.0
01/09:00am 13.0 5.3 3.5 52 4.4 W 33 39 18 21 - - 14.2
01/08:50am 12.8 5.6 4.9 58 3.8 W 32 35 17 19 - - 14.2
01/08:40am 12.8 5.9 4.7 58 3.9 W 30 39 16 21 - - 14.2
01/08:30am 12.5 5.5 4.0 56 4.0 W 30 39 16 21 - - 14.2
01/08:20am 12.3 5.0 4.3 58 3.8 W 32 35 17 19 - - 14.2
01/08:10am 12.1 5.2 4.6 60 3.6 W 30 35 16 19 - - 14.2
01/08:00am 11.9 5.5 5.3 64 3.2 W 28 32 15 17 - - 14.2
01/07:50am 11.9 6.3 5.5 65 3.1 W 24 32 13 17 - - 14.2
01/07:40am 11.7 6.5 5.7 66 2.9 W 22 30 12 16 - - 14.2
01/07:30am 11.4 7.3 6.0 69 2.6 W 17 22 9 12 - - 14.2
01/07:20am 11.1 7.0 6.0 71 2.5 WNW 17 20 9 11 - - 14.2
01/07:10am 10.9 6.4 6.1 72 2.3 WNW 19 22 10 12 - - 14.2
01/07:00am 10.6 5.8 5.8 72 2.3 WNW 20 26 11 14 - - 14.2
01/06:50am 10.3 4.7 5.6 72 2.2 WNW 24 26 13 14 - - 14.2
01/06:40am 10.0 4.4 5.4 73 2.2 WNW 24 28 13 15 - - 14.2
01/06:30am 9.1 3.5 5.2 76 1.8 WNW 24 28 13 15 - - 14.2
01/06:20am 9.0 3.7 5.2 77 1.8 WNW 22 24 12 13 - - 14.2
01/06:10am 8.8 3.5 5.2 78 1.7 WNW 22 24 12 13 - - 14.2
01/06:00am 8.9 3.6 5.2 77 1.7 W 22 28 12 15 - - 14.2
01/05:50am 9.0 3.8 5.3 77 1.7 W 22 24 12 13 - - 14.2
01/05:40am 8.9 3.7 5.4 79 1.6 W 22 26 12 14 - - 14.2
01/05:30am 9.1 3.5 5.4 77 1.7 W 24 26 13 14 - - 14.2
01/05:20am 9.3 2.9 5.2 75 1.9 WNW 28 30 15 16 - - 14.2
01/05:10am 9.3 3.7 5.4 76 1.8 WNW 24 28 13 15 - - 14.2
01/05:00am 9.3 4.0 5.1 75 2.0 WNW 22 30 12 16 - - 14.2
01/04:50am 8.7 4.2 6.0 83 1.3 NW 19 20 10 11 - - 14.2
01/04:40am 8.6 4.9 6.3 85 1.1 NW 15 19 8 10 - - 14.2
01/04:30am 9.2 5.9 6.5 83 1.3 WNW 13 13 7 7 - - 14.2
01/04:20am 9.6 6.3 6.6 81 1.5 WNW 13 15 7 8 - - 14.2
01/04:10am 10.1 6.1 6.8 80 1.6 W 17 20 9 11 - - 14.2
01/04:00am 10.5 6.0 6.9 78 1.8 W 20 24 11 13 - - 14.2
01/03:50am 10.5 6.4 7.8 83 1.4 W 19 20 10 11 - - 14.2
01/03:40am 10.6 6.5 8.6 87 1.0 W 20 26 11 14 - - 14.2
01/03:30am 10.7 6.7 8.9 89 0.9 WNW 20 26 11 14 - - 14.2
01/03:20am 10.9 6.9 9.1 89 0.9 W 20 22 11 12 - - 14.2
01/03:10am 11.0 7.2 9.2 89 0.9 WNW 19 22 10 12 - - 14.2
01/03:00am 11.0 7.3 9.6 91 0.7 WNW 19 22 10 12 - - 14.2
01/02:50am 11.0 7.2 9.7 92 0.7 WNW 20 24 11 13 - - 14.2
01/02:40am 10.9 7.3 9.7 92 0.6 WNW 19 20 10 11 - - 14.2
01/02:30am 10.9 7.3 9.7 92 0.6 WNW 19 20 10 11 - - 14.2
01/02:20am 11.0 7.2 9.7 92 0.7 WNW 20 24 11 13 - - 14.2
01/02:10am 11.1 6.5 9.7 91 0.7 WNW 24 28 13 15 - - 14.2
01/02:00am 11.1 6.9 9.9 92 0.6 NW 22 30 12 16 - - 14.2
01/01:50am 11.1 6.6 9.9 92 0.6 WNW 24 28 13 15 - - 14.2
01/01:40am 11.0 7.3 10.0 93 0.5 WNW 20 24 11 13 - - 14.0
01/01:30am 11.1 6.5 9.8 92 0.7 NW 24 30 13 16 - - 13.8
01/01:20am 11.1 6.9 9.9 92 0.6 NW 22 30 12 16 - - 13.6
01/01:10am 11.2 7.0 9.9 92 0.7 NW 22 30 12 16 - - 12.4
01/01:00am 11.2 6.6 9.8 91 0.7 NW 24 26 13 14 - - 11.0
01/12:50am 11.2 7.0 9.8 91 0.7 NW 22 26 12 14 - - 11.0
01/12:40am 11.2 7.0 9.9 92 0.7 NW 22 28 12 15 - - 11.0
01/12:30am 11.2 6.6 9.8 91 0.7 NW 24 32 13 17 - - 11.0
01/12:20am 11.3 7.1 9.9 91 0.7 NW 22 28 12 15 - - 11.0
01/12:10am 11.3 6.4 9.8 90 0.8 NW 26 28 14 15 - - 11.0
01/12:00am 11.3 7.1 9.9 91 0.7 NW 22 28 12 15 - - 11.0
 
Date/Time
EST
Temp
°C
App
Temp
°C
Dew
Point
°C
Rel
Hum
%
Delta-T
°C
Wind Press
QNH
hPa
Press
MSL
hPa
Rain since
9am
mm
Dir  Spd
km/h
Gust
km/h
Spd
kts
Gust
kts
30/11:50pm 11.3 6.4 9.9 91 0.7 NW 26 32 14 17 - - 11.0
30/11:40pm 11.3 7.1 9.8 90 0.8 NW 22 30 12 16 - - 11.0
30/11:30pm 11.2 7.0 9.8 91 0.7 NW 22 26 12 14 - - 11.0
30/11:20pm 10.9 8.0 9.8 93 0.6 WNW 15 19 8 10 - - 11.0
30/11:10pm 10.8 7.9 9.8 93 0.5 W 15 17 8 9 - - 10.8
30/11:00pm 10.8 8.3 9.8 93 0.5 W 13 15 7 8 - - 8.8
30/10:50pm 11.1 6.5 9.5 90 0.8 NNW 24 30 13 16 - - 6.6
30/10:40pm 11.1 7.4 9.3 89 0.9 NNW 19 22 10 12 - - 5.8
30/10:30pm 11.1 8.5 9.4 89 0.9 N 13 20 7 11 - - 5.8
30/10:20pm 11.2 9.0 9.3 88 1.0 NNW 11 15 6 8 - - 5.8
30/10:10pm 11.3 8.7 9.4 88 1.0 NW 13 17 7 9 - - 5.8
30/10:00pm 11.3 8.7 9.4 88 1.0 NNW 13 17 7 9 - - 5.8
30/09:50pm 11.4 9.2 9.4 87 1.0 NNW 11 13 6 7 - - 5.8
30/09:40pm 11.6 9.4 9.3 86 1.2 NNW 11 13 6 7 - - 5.8
30/09:30pm 11.6 9.0 9.4 86 1.2 N 13 17 7 9 - - 5.8
30/09:20pm 11.6 9.4 9.3 86 1.2 N 11 17 6 9 - - 5.8
30/09:10pm 11.5 8.9 9.3 86 1.1 N 13 19 7 10 - - 5.8
30/09:00pm 11.6 9.0 9.4 86 1.2 N 13 15 7 8 - - 5.8
30/08:50pm 11.5 8.6 9.5 87 1.0 N 15 17 8 9 - - 5.8
30/08:40pm 11.6 8.7 9.5 87 1.1 N 15 19 8 10 - - 5.8
30/08:30pm 11.7 8.0 9.5 86 1.2 N 19 22 10 12 - - 5.8
30/08:20pm 11.6 8.3 9.6 87 1.1 N 17 19 9 10 - - 5.8
30/08:10pm 11.7 8.4 9.7 87 1.1 N 17 20 9 11 - - 5.8
30/08:00pm 11.6 8.0 9.7 88 1.0 N 19 22 10 12 - - 5.8
30/07:50pm 11.6 7.7 9.6 87 1.1 N 20 24 11 13 - - 5.8
30/07:40pm 11.6 8.0 9.8 89 1.0 N 19 26 10 14 - - 5.8
30/07:30pm 11.8 8.2 9.7 87 1.1 N 19 22 10 12 - - 5.6
30/07:20pm 11.9 8.3 9.7 86 1.2 N 19 22 10 12 - - 5.4
30/07:10pm 11.9 8.7 9.8 87 1.1 N 17 20 9 11 - - 5.4
30/07:00pm 11.9 8.7 9.9 87 1.1 N 17 19 9 10 - - 5.4
30/06:50pm 11.8 9.0 9.9 88 1.0 N 15 19 8 10 - - 5.4
30/06:40pm 11.7 8.5 9.9 89 1.0 N 17 22 9 12 - - 5.4
30/06:30pm 11.6 8.8 10.1 90 0.8 N 15 17 8 9 - - 5.4
30/06:20pm 11.6 9.2 9.9 89 0.9 N 13 15 7 8 - - 5.4
30/06:10pm 11.5 9.1 10.1 91 0.7 N 13 19 7 10 - - 5.4
30/06:00pm 11.5 9.5 10.0 90 0.8 N 11 15 6 8 - - 5.4
30/05:50pm 11.4 9.4 10.0 91 0.7 N 11 15 6 8 - - 5.4
30/05:40pm 11.5 9.5 10.0 90 0.8 N 11 13 6 7 - - 5.4
30/05:30pm 11.4 9.8 10.1 92 0.7 N 9 11 5 6 - - 5.4
30/05:20pm 11.5 9.5 10.0 90 0.8 N 11 15 6 8 - - 5.4
30/05:10pm 11.4 9.4 10.0 91 0.7 N 11 13 6 7 - - 5.4
30/05:00pm 11.2 9.9 10.0 92 0.6 N 7 11 4 6 - - 5.4
30/04:50pm 11.2 9.5 10.0 92 0.6 NW 9 11 5 6 - - 5.4
30/04:40pm 11.1 9.1 10.0 93 0.6 NNW 11 17 6 9 - - 5.4
30/04:30pm 11.1 9.4 9.9 92 0.6 WNW 9 11 5 6 - - 5.4
30/04:20pm 11.2 9.9 10.0 92 0.6 WNW 7 9 4 5 - - 4.4
30/04:10pm 11.2 9.5 10.0 92 0.6 NNW 9 11 5 6 - - 3.2
30/04:00pm 11.3 8.9 10.0 92 0.7 NNW 13 17 7 9 - - 2.8
30/03:50pm 11.4 9.7 9.7 89 0.9 N 9 19 5 10 - - 2.4
30/03:40pm 11.4 10.1 10.1 92 0.7 N 7 11 4 6 - - 2.2
30/03:30pm 11.6 10.6 10.3 92 0.7 NNW 6 9 3 5 - - 1.4
30/03:20pm 11.7 11.0 10.2 90 0.8 NW 4 6 2 3 - - 1.0
30/03:10pm 11.8 10.7 10.0 89 1.0 NW 6 7 3 4 - - 0.4
30/03:00pm 11.9 10.2 10.0 88 1.0 NNW 9 11 5 6 - - 0.2
30/02:50pm 12.0 9.8 9.4 84 1.4 NW 11 11 6 6 - - 0.0
30/02:40pm 12.2 9.9 9.1 81 1.6 NNW 11 13 6 7 - - 0.0
30/02:30pm 12.5 10.5 8.7 77 2.0 NNW 9 13 5 7 - - 0.0
30/02:20pm 12.5 10.9 8.7 77 2.0 NW 7 7 4 4 - - 0.0
30/02:10pm 12.5 10.5 8.7 77 2.0 NW 9 13 5 7 - - 0.0
30/02:00pm 12.6 10.6 8.7 77 2.0 WNW 9 13 5 7 - - 0.0
30/01:50pm 12.7 10.8 9.1 79 1.9 WNW 9 11 5 6 - - 0.0
30/01:40pm 12.7 9.9 8.5 75 2.2 WNW 13 19 7 10 - - 0.0
30/01:30pm 12.9 10.2 8.8 76 2.1 W 13 17 7 9 - - 0.0
30/01:20pm 13.3 10.2 8.8 74 2.4 WNW 15 19 8 10 - - 0.0
30/01:10pm 13.4 9.8 8.3 71 2.6 NW 17 19 9 10 - - 0.0
30/01:00pm 13.8 10.4 7.6 66 3.2 NW 15 19 8 10 - - 0.0
30/12:50pm 14.0 9.8 7.3 64 3.4 NW 19 24 10 13 - - 0.0
30/12:40pm 14.4 9.6 7.3 62 3.6 WNW 22 28 12 15 - - 0.0
30/12:30pm 14.7 10.1 6.6 58 4.1 NW 20 24 11 13 - - 0.0
30/12:20pm 14.6 9.7 6.9 60 3.9 NW 22 28 12 15 - - 0.0
30/12:10pm 14.7 8.9 6.3 57 4.2 WNW 26 33 14 18 - - 0.0
30/12:00pm 15.2 9.9 6.7 57 4.3 WNW 24 26 13 14 - - 0.0
30/11:50am 15.4 10.1 6.8 56 4.4 NW 24 28 13 15 - - 0.0
30/11:40am 15.7 11.0 6.2 53 4.8 N 20 28 11 15 - - 0.0
30/11:30am 15.7 10.3 6.3 53 4.7 WNW 24 32 13 17 - - 0.0
30/11:20am 15.8 11.4 6.4 53 4.8 NNW 19 22 10 12 - - 0.0
30/11:10am 15.8 10.3 5.7 51 5.0 NNW 24 30 13 16 - - 0.0
30/11:00am 15.9 11.3 6.4 53 4.8 NW 20 32 11 17 - - 0.0
30/10:50am 16.0 12.3 6.4 53 4.9 NNW 15 22 8 12 - - 0.0
30/10:40am 14.9 10.5 6.7 58 4.2 NNW 19 22 10 12 - - 0.0
30/10:30am 14.5 10.8 6.1 57 4.2 NNW 15 19 8 10 - - 0.0
30/10:20am 14.1 10.2 5.2 55 4.3 NW 15 22 8 12 - - 0.0
30/10:10am 13.8 8.9 5.1 55 4.2 NW 20 28 11 15 - - 0.0
30/10:00am 14.1 9.8 5.2 55 4.3 NNW 17 20 9 11 - - 0.0
30/09:50am 13.6 8.8 4.6 54 4.3 NNW 19 22 10 12 - - 0.0
30/09:40am 13.6 9.6 4.8 55 4.2 NW 15 22 8 12 - - 0.0
30/09:30am 13.4 9.0 4.6 55 4.2 NNW 17 20 9 11 - - 0.0
30/09:20am 13.2 9.1 4.3 55 4.2 NW 15 22 8 12 - - 0.0
30/09:10am 12.6 8.1 4.4 57 3.9 NW 17 20 9 11 - - 0.0
30/09:00am 11.9 9.3 6.3 68 2.8 W 9 15 5 8 - - 0.0
30/08:50am 12.5 11.5 7.3 70 2.6 SW 2 4 1 2 - - 0.0
30/08:40am 12.0 11.1 7.6 74 2.2 W 2 4 1 2 - - 0.0
30/08:30am 11.2 9.8 7.2 76 2.0 W 4 4 2 2 - - 0.0
30/08:20am 10.6 9.1 7.0 78 1.8 WSW 4 4 2 2 - - 0.0
30/08:10am 10.0 8.5 6.9 81 1.5 WSW 4 6 2 3 - - 0.0
30/08:00am 9.5 8.0 6.6 82 1.4 SW 4 6 2 3 - - 0.0
30/07:50am 9.1 7.5 6.3 83 1.3 SW 4 4 2 2 - - 0.0
30/07:40am 8.7 7.0 6.1 84 1.2 SW 4 4 2 2 - - 0.0
30/07:30am 8.4 7.0 5.3 81 1.5 SW 2 4 1 2 - - 0.0
30/07:20am 7.7 6.3 5.4 85 1.1 SW 2 4 1 2 - - 0.0
30/07:10am 6.9 5.4 4.9 87 0.9 N 2 4 1 2 - - 0.0
30/07:00am 6.1 4.6 4.8 91 0.6 NE 2 4 1 2 - - 0.0
30/06:50am 5.5 3.5 4.3 92 0.5 NNE 4 4 2 2 - - 0.0
30/06:40am 5.1 3.0 4.1 93 0.4 NNE 4 4 2 2 - - 0.0
30/06:30am 4.7 2.6 3.9 95 0.4 NE 4 4 2 2 - - 0.0
30/06:20am 4.5 2.7 3.7 95 0.3 ENE 2 2 1 1 - - 0.0
30/06:10am 4.1 2.3 3.3 94 0.3 ENE 2 4 1 2 - - 0.0
30/06:00am 3.6 1.3 2.8 94 0.3 NNE 4 4 2 2 - - 0.0
30/05:50am 3.5 0.8 2.4 92 0.5 NNE 6 6 3 3 - - 0.0
30/05:40am 3.8 1.1 2.8 93 0.4 NE 6 7 3 4 - - 0.0
30/05:30am 4.5 1.8 2.7 88 0.8 NE 6 7 3 4 - - 0.0
30/05:20am 4.7 2.2 3.8 94 0.4 NE 6 6 3 3 - - 0.0
30/05:10am 4.8 3.0 3.6 92 0.5 N 2 4 1 2 - - 0.0
30/05:00am 5.4 3.7 4.2 92 0.5 NNW 2 2 1 1 - - 0.0
30/04:50am 5.8 4.2 4.5 91 0.6 NNW 2 2 1 1 - - 0.0
30/04:40am 6.0 4.4 4.7 91 0.6 WNW 2 4 1 2 - - 0.0
30/04:30am 6.2 4.6 4.7 90 0.7 WNW 2 4 1 2 - - 0.0
30/04:20am 6.3 4.8 4.8 90 0.7 WSW 2 2 1 1 - - 0.0
30/04:10am 6.5 5.0 4.8 89 0.8 SW 2 2 1 1 - - 0.0
30/04:00am 6.6 4.7 4.8 88 0.8 SSW 4 4 2 2 - - 0.0
30/03:50am 6.8 4.9 4.9 88 0.9 WSW 4 4 2 2 - - 0.0
30/03:40am 6.8 5.3 4.9 88 0.9 W 2 4 1 2 - - 0.0
30/03:30am 6.9 5.0 5.0 88 0.9 W 4 4 2 2 - - 0.0
30/03:20am 7.1 5.6 4.9 86 1.0 W 2 4 1 2 - - 0.0
30/03:10am 7.4 5.9 5.1 85 1.1 SSW 2 4 1 2 - - 0.0
30/03:00am 7.8 6.4 5.3 84 1.2 ESE 2 4 1 2 - - 0.0
30/02:50am 8.6 6.8 5.3 80 1.5 E 4 6 2 3 - - 0.0
30/02:40am 8.4 6.8 4.5 76 1.8 E 2 4 1 2 - - 0.0
30/02:30am 8.6 7.1 4.8 77 1.8 ENE 2 2 1 1 - - 0.0
30/02:20am 8.9 7.0 4.7 75 1.9 NNE 4 6 2 3 - - 0.0
30/02:10am 8.8 6.8 4.5 74 2.0 N 4 6 2 3 - - 0.0
30/02:00am 8.8 5.9 4.7 75 1.9 NNE 9 11 5 6 - - 0.0
30/01:50am 8.6 5.3 4.6 76 1.8 NNE 11 13 6 7 - - 0.0
30/01:40am 8.7 5.0 4.5 75 1.9 NNE 13 15 7 8 - - 0.0
30/01:30am 8.7 4.7 4.7 76 1.9 NNE 15 17 8 9 - - 0.0
30/01:20am 8.6 4.6 4.7 76 1.8 NNE 15 17 8 9 - - 0.0
30/01:10am 8.6 4.6 4.7 76 1.8 NNE 15 17 8 9 - - 0.0
30/01:00am 8.6 4.6 5.0 78 1.7 NNE 15 17 8 9 - - 0.0
30/12:50am 8.8 4.8 5.1 77 1.7 NNE 15 17 8 9 - - 0.0
30/12:40am 8.9 4.9 5.1 77 1.8 NNE 15 15 8 8 - - 0.0
30/12:30am 8.5 5.3 5.0 78 1.6 NNE 11 13 6 7 - - 0.0
30/12:20am 8.6 5.0 5.2 79 1.6 NNE 13 13 7 7 - - 0.0
30/12:10am 8.6 5.1 5.3 80 1.5 NNE 13 13 7 7 - - 0.0
30/12:00am 8.8 5.2 5.2 78 1.7 NNE 13 13 7 7 - - 0.0
 
Date/Time
EST
Temp
°C
App
Temp
°C
Dew
Point
°C
Rel
Hum
%
Delta-T
°C
Wind Press
QNH
hPa
Press
MSL
hPa
Rain since
9am
mm
Dir  Spd
km/h
Gust
km/h
Spd
kts
Gust
kts
29/11:50pm 8.8 5.7 5.4 79 1.6 NNE 11 13 6 7 - - 0.0
29/11:40pm 8.9 5.4 5.4 79 1.6 NNE 13 13 7 7 - - 0.0
29/11:30pm 9.0 5.5 5.4 78 1.7 NNE 13 15 7 8 - - 0.0
29/11:20pm 9.0 5.5 5.6 79 1.6 NNE 13 15 7 8 - - 0.0
29/11:10pm 8.9 5.8 5.6 80 1.6 NNE 11 13 6 7 - - 0.0
29/11:00pm 8.7 5.6 5.6 81 1.5 NNE 11 11 6 6 - - 0.0
29/10:50pm 8.5 5.3 5.3 80 1.5 NNE 11 13 6 7 - - 0.0
29/10:40pm 8.2 5.0 5.2 81 1.4 NNE 11 11 6 6 - - 0.0
29/10:30pm 7.7 4.9 5.0 83 1.2 NE 9 11 5 6 - - 0.0
29/10:20pm 7.3 4.8 4.7 83 1.2 NE 7 9 4 5 - - 0.0
29/10:10pm 7.0 4.6 4.5 84 1.1 NE 6 7 3 4 - - 0.0
29/10:00pm 6.9 4.9 4.2 83 1.2 NE 4 6 2 3 - - 0.0
29/09:50pm 7.1 4.7 4.2 82 1.3 ENE 6 7 3 4 - - 0.0
29/09:40pm 7.1 5.5 4.3 82 1.3 E 2 6 1 3 - - 0.0
29/09:30pm 7.8 6.2 4.3 78 1.6 ENE 2 4 1 2 - - 0.0
29/09:20pm 7.8 6.0 3.6 75 1.9 ENE 2 4 1 2 - - 0.0
29/09:10pm 7.0 5.2 3.6 79 1.5 NW 2 6 1 3 - - 0.0
29/09:00pm 6.9 4.4 4.0 82 1.3 NNE 6 7 3 4 - - 0.0
29/08:50pm 6.7 4.0 3.8 82 1.3 ENE 7 11 4 6 - - 0.0
29/08:40pm 6.8 4.4 4.5 85 1.0 NE 6 6 3 3 - - 0.0
29/08:30pm 7.0 4.6 4.2 82 1.3 ENE 6 6 3 3 - - 0.0
29/08:20pm 6.6 4.6 4.5 86 1.0 NE 4 6 2 3 - - 0.0
29/08:10pm 6.7 4.2 3.9 82 1.3 NE 6 6 3 3 - - 0.0
29/08:00pm 6.6 4.1 4.5 86 1.0 NE 7 9 4 5 - - 0.0
29/07:50pm 8.1 5.6 4.6 78 1.6 NE 7 7 4 4 - - 0.0
29/07:40pm 8.3 5.5 3.3 71 2.2 ENE 7 7 4 4 - - 0.0
29/07:30pm 7.3 4.7 4.3 81 1.4 NE 7 9 4 5 - - 0.0
29/07:20pm 8.5 5.9 4.3 75 1.9 NE 7 9 4 5 - - 0.0
29/07:10pm 9.7 6.9 3.2 64 2.9 ENE 7 7 4 4 - - 0.0
29/07:00pm 9.4 7.0 4.4 71 2.3 NE 6 7 3 4 - - 0.0
29/06:50pm 9.8 7.2 3.4 64 2.9 NE 6 6 3 3 - - 0.0
29/06:40pm 10.1 7.6 3.5 63 3.0 NE 6 7 3 4 - - 0.0
29/06:30pm 10.4 7.8 4.2 65 2.9 NE 7 7 4 4 - - 0.0
29/06:20pm 10.7 8.2 3.9 63 3.1 NE 6 7 3 4 - - 0.0
29/06:10pm 10.8 8.3 3.7 61 3.3 NE 6 7 3 4 - - 0.0
29/06:00pm 11.1 8.9 5.2 67 2.8 NNE 6 6 3 3 - - 0.0
29/05:50pm 12.0 9.9 5.7 65 3.1 NE 6 6 3 3 - - 0.0
29/05:40pm 12.7 10.6 4.1 56 4.1 NE 4 6 2 3 - - 0.0
29/05:30pm 13.2 11.1 3.9 53 4.4 N 4 7 2 4 - - 0.0
29/05:20pm 14.0 11.4 4.3 52 4.6 N 7 7 4 4 - - 0.0
29/05:10pm 14.6 11.3 2.6 44 5.6 NW 9 11 5 6 - - 0.0
29/05:00pm 15.1 11.7 1.9 41 6.1 NW 9 11 5 6 - - 0.0
29/04:50pm 16.0 11.7 0.7 35 6.9 NNW 13 17 7 9 - - 0.0
29/04:40pm 16.7 13.5 0.9 34 7.2 NNW 7 9 4 5 - - 0.0
29/04:30pm 16.5 12.4 -0.3 32 7.4 N 11 13 6 7 - - 0.0
29/04:20pm 16.4 12.4 0.5 34 7.2 N 11 19 6 10 - - 0.0
29/04:10pm 17.0 13.0 0.3 32 7.5 NNW 11 15 6 8 - - 0.0
29/04:00pm 17.0 13.1 1.1 34 7.3 NNW 11 13 6 7 - - 0.0
29/03:50pm 16.6 13.1 3.5 41 6.3 NNW 11 13 6 7 - - 0.0
29/03:40pm 16.2 12.6 3.0 41 6.3 NNW 11 13 6 7 - - 0.0
29/03:30pm 16.4 13.4 2.1 38 6.7 NW 7 9 4 5 - - 0.0
29/03:20pm 15.7 11.9 1.8 39 6.4 NW 11 15 6 8 - - 0.0
29/03:10pm 16.8 12.8 3.0 39 6.6 NW 13 17 7 9 - - 0.0
29/03:00pm 17.2 13.7 1.5 34 7.3 NW 9 11 5 6 - - 0.0
29/02:50pm 16.7 12.6 0.1 32 7.4 NW 11 17 6 9 - - 0.0
29/02:40pm 16.8 13.3 1.0 34 7.2 NNE 9 13 5 7 - - 0.0
29/02:30pm 16.8 12.2 -0.8 30 7.7 NNW 13 15 7 8 - - 0.0
29/02:20pm 16.3 11.8 2.1 38 6.6 WNW 15 19 8 10 - - 0.0
29/02:10pm 16.7 13.2 3.3 40 6.4 WNW 11 17 6 9 - - 0.0
29/02:00pm 16.8 12.5 0.8 34 7.3 N 13 17 7 9 - - 0.0
29/01:50pm 17.0 12.4 1.3 34 7.2 NW 15 17 8 9 - - 0.0
29/01:40pm 17.1 13.6 1.1 34 7.3 N 9 15 5 8 - - 0.0
29/01:30pm 16.7 12.8 1.2 35 7.1 NNE 11 17 6 9 - - 0.0
29/01:20pm 16.9 13.6 2.6 38 6.8 N 9 17 5 9 - - 0.0
29/01:10pm 17.0 13.2 -0.4 30 7.7 N 9 17 5 9 - - 0.0
29/01:00pm 17.3 14.1 1.0 33 7.5 WNW 7 11 4 6 - - 0.0
29/12:50pm 16.9 13.5 2.1 37 6.9 NW 9 17 5 9 - - 0.0
29/12:40pm 16.7 12.4 1.1 35 7.1 NW 13 20 7 11 - - 0.0
29/12:30pm 16.5 12.4 2.1 38 6.7 NNW 13 15 7 8 - - 0.0
29/12:20pm 16.3 12.0 0.9 35 7.0 NW 13 17 7 9 - - 0.0
29/12:10pm 16.0 11.9 2.0 39 6.5 NNW 13 19 7 10 - - 0.0
29/12:00pm 15.3 11.7 2.8 43 5.9 NNW 11 15 6 8 - - 0.0
29/11:50am 15.1 12.0 3.5 46 5.5 NW 9 13 5 7 - - 0.0
29/11:40am 15.6 12.1 3.5 44 5.8 N 11 15 6 8 - - 0.0
29/11:30am 15.6 12.9 5.4 50 5.1 N 9 17 5 9 - - 0.0
29/11:20am 15.4 12.6 3.4 44 5.7 NNE 7 11 4 6 - - 0.0
29/11:10am 15.1 12.6 5.0 51 4.9 NNW 7 9 4 5 - - 0.0
29/11:00am 14.8 11.8 4.1 48 5.1 NNW 9 15 5 8 - - 0.0
29/10:50am 14.5 11.1 4.0 49 5.0 NNE 11 19 6 10 - - 0.0
29/10:40am 14.2 11.7 4.5 52 4.7 E 7 11 4 6 - - 0.0
29/10:30am 14.2 11.9 5.7 56 4.2 N 7 11 4 6 - - 0.0
29/10:20am 14.0 11.7 5.5 56 4.2 N 7 11 4 6 - - 0.0
29/10:10am 14.1 12.2 4.8 53 4.5 SW 4 6 2 3 - - 0.0
29/10:00am 13.7 11.5 5.3 57 4.1 N 6 11 3 6 - - 0.0
29/09:50am 13.5 11.0 6.6 63 3.5 NE 9 11 5 6 - - 0.0
29/09:40am 13.3 11.6 5.7 60 3.7 S 4 7 2 4 - - 0.0
29/09:30am 11.8 9.6 6.1 68 2.8 SW 7 9 4 5 - - 0.0
29/09:20am 12.2 8.9 6.4 67 2.9 N 13 17 7 9 - - 0.0
29/09:10am 12.5 10.3 6.1 65 3.1 NE 7 9 4 5 - - 0.0
29/09:00am 12.0 10.1 5.0 62 3.3 SE 4 6 2 3 - - 0.0
29/08:50am 10.2 7.8 5.4 72 2.3 SSW 7 11 4 6 - - 0.0
29/08:40am 10.5 8.4 6.7 77 1.9 SW 7 11 4 6 - - 0.0
29/08:30am 10.1 8.0 6.0 76 2.0 SW 6 7 3 4 - - 0.0
29/08:20am 9.3 7.3 6.2 81 1.5 SW 6 7 3 4 - - 0.0
29/08:10am 8.9 7.3 6.3 84 1.2 W 4 6 2 3 - - 0.0
29/08:00am 8.6 6.5 6.0 84 1.2 SSW 6 7 3 4 - - 0.0
29/07:50am 8.3 6.2 6.0 85 1.1 SSW 6 6 3 3 - - 0.0
29/07:40am 8.2 6.5 5.9 85 1.1 WSW 4 4 2 2 - - 0.0
29/07:30am 8.0 6.7 6.0 87 0.9 WSW 2 2 1 1 - - 0.0
29/07:20am 7.2 5.8 5.7 90 0.7 SSE 2 2 1 1 - - 0.0
29/07:10am 6.3 4.8 5.2 93 0.5 NE 2 2 1 1 - - 0.0
29/07:00am 5.1 3.4 4.2 94 0.4 NE 2 2 1 1 - - 0.0
29/06:50am 4.0 2.2 3.2 94 0.3 ENE 2 2 1 1 - - 0.0
29/06:40am 3.1 1.1 2.3 94 0.3 ENE 2 2 1 1 - - 0.0
29/06:30am 2.0 -0.2 1.3 95 0.3 NNE 2 4 1 2 - - 0.0
29/06:20am 1.2 -1.5 0.5 95 0.3 NE 4 6 2 3 - - 0.0
29/06:10am 1.4 -1.2 0.8 96 0.2 NE 4 4 2 2 - - 0.0
29/06:00am 0.6 -2.1 0.0 96 0.2 NE 4 4 2 2 - - 0.0
29/05:50am 0.9 -1.8 0.2 95 0.3 NNE 4 6 2 3 - - 0.0
29/05:40am 1.1 -1.6 0.4 95 0.3 NE 4 6 2 3 - - 0.0
29/05:30am 1.2 -1.5 0.6 96 0.2 NNE 4 4 2 2 - - 0.0
29/05:20am 1.5 -0.7 0.9 96 0.2 E 2 4 1 2 - - 0.0
29/05:10am 1.5 -0.7 0.8 95 0.3 N 2 6 1 3 - - 0.0
29/05:00am 1.4 -0.9 0.7 95 0.3 NNE 2 4 1 2 - - 0.0
29/04:50am 1.2 -1.5 0.5 95 0.3 NNE 4 9 2 5 - - 0.0
29/04:40am 1.2 -1.5 0.5 95 0.3 NNE 4 7 2 4 - - 0.0
29/04:30am 1.4 -1.2 0.7 95 0.3 ENE 4 9 2 5 - - 0.0
29/04:20am 1.3 -1.0 0.6 95 0.3 NE 2 4 1 2 - - 0.0
29/04:10am 1.2 -1.1 0.5 95 0.3 NNE 2 4 1 2 - - 0.0
29/04:00am 1.6 -0.6 0.9 95 0.3 ENE 2 2 1 1 - - 0.0
29/03:50am 2.0 -0.2 1.3 95 0.3 W 2 4 1 2 - - 0.0
29/03:40am 1.9 -0.7 1.2 95 0.3 WNW 4 6 2 3 - - 0.0
29/03:30am 2.0 -0.2 1.2 94 0.3 W 2 4 1 2 - - 0.0
29/03:20am 2.2 -0.3 1.4 94 0.3 SW 4 6 2 3 - - 0.0
29/03:10am 2.5 0.4 1.7 94 0.3 SSW 2 4 1 2 - - 0.0
29/03:00am 2.7 0.6 1.9 94 0.3 E 2 4 1 2 - - 0.0
29/02:50am 2.9 0.5 2.1 94 0.3 WSW 4 6 2 3 - - 0.0
29/02:40am 3.1 0.7 2.3 94 0.3 SW 4 6 2 3 - - 0.0
29/02:30am 3.5 1.2 2.7 94 0.3 WSW 4 6 2 3 - - 0.0
29/02:20am 3.8 1.5 3.0 94 0.3 SW 4 4 2 2 - - 0.0
29/02:10am 3.9 1.6 2.9 93 0.4 WSW 4 6 2 3 - - 0.0
29/02:00am 4.4 2.2 3.6 95 0.3 NE 4 7 2 4 - - 0.0
29/01:50am 4.4 2.6 3.5 94 0.4 NNE 2 6 1 3 - - 0.0
29/01:40am 4.5 2.3 3.4 93 0.5 SE 4 6 2 3 - - 0.0
29/01:30am 5.0 2.9 3.8 92 0.5 ESE 4 4 2 2 - - 0.0
29/01:20am 5.6 3.2 4.1 90 0.7 E 6 9 3 5 - - 0.0
29/01:10am 6.1 3.7 4.2 88 0.8 E 6 7 3 4 - - 0.0
29/01:00am 6.1 3.8 4.9 92 0.5 E 6 9 3 5 - - 0.0
29/12:50am 5.9 3.6 4.7 92 0.5 E 6 9 3 5 - - 0.0
29/12:40am 6.6 3.8 5.1 90 0.7 E 9 11 5 6 - - 0.0
29/12:30am 6.5 3.7 5.1 91 0.6 E 9 11 5 6 - - 0.0
29/12:20am 6.7 4.3 5.1 89 0.7 E 7 11 4 6 - - 0.0
29/12:10am 6.9 3.7 5.2 89 0.8 E 11 13 6 7 - - 0.0
29/12:00am 6.7 3.9 5.3 91 0.6 E 9 11 5 6 - - 0.0
 
Date/Time
EST
Temp
°C
App
Temp
°C
Dew
Point
°C
Rel
Hum
%
Delta-T
°C
Wind Press
QNH
hPa
Press
MSL
hPa
Rain since
9am
mm
Dir  Spd
km/h
Gust
km/h
Spd
kts
Gust
kts
28/11:50pm 6.6 4.2 5.1 90 0.7 E 7 9 4 5 - - 0.0
28/11:40pm 6.4 4.2 5.1 91 0.6 E 6 7 3 4 - - 0.0
28/11:30pm 6.4 3.6 5.0 91 0.6 ENE 9 11 5 6 - - 0.0
28/11:20pm 6.5 3.7 5.0 90 0.7 ENE 9 13 5 7 - - 0.0
28/11:10pm 6.6 3.8 5.1 90 0.7 E 9 11 5 6 - - 0.0
28/11:00pm 6.7 3.9 5.2 90 0.7 E 9 9 5 5 - - 0.0
28/10:50pm 6.7 4.3 5.3 91 0.6 E 7 9 4 5 - - 0.0
28/10:40pm 6.8 4.0 5.3 90 0.7 E 9 11 5 6 - - 0.0
28/10:30pm 6.8 4.4 5.2 89 0.7 ESE 7 9 4 5 - - 0.0
28/10:20pm 6.9 4.1 5.3 89 0.7 E 9 11 5 6 - - 0.0
28/10:10pm 7.0 4.3 5.4 89 0.7 E 9 13 5 7 - - 0.0
28/10:00pm 7.2 3.7 5.4 88 0.8 E 13 15 7 8 - - 0.0
28/09:50pm 7.3 4.2 5.4 88 0.9 E 11 15 6 8 - - 0.0
28/09:40pm 7.4 3.9 5.4 87 0.9 E 13 15 7 8 - - 0.0
28/09:30pm 7.4 3.9 5.5 88 0.9 E 13 15 7 8 - - 0.0
28/09:20pm 7.5 4.0 5.5 87 0.9 ENE 13 15 7 8 - - 0.0
28/09:10pm 7.6 4.1 5.5 86 1.0 ENE 13 17 7 9 - - 0.0
28/09:00pm 7.7 3.9 5.6 86 1.0 ENE 15 20 8 11 - - 0.0
28/08:50pm 7.7 3.9 5.7 87 0.9 ENE 15 19 8 10 - - 0.0
28/08:40pm 7.9 3.7 5.7 86 1.0 ENE 17 19 9 10 - - 0.0
28/08:30pm 8.1 3.9 5.8 85 1.1 ENE 17 20 9 11 - - 0.0
28/08:20pm 8.3 4.5 5.8 84 1.2 NE 15 17 8 9 - - 0.0
28/08:10pm 8.4 5.0 5.9 84 1.2 NE 13 17 7 9 - - 0.0
28/08:00pm 8.9 5.1 6.0 82 1.4 NE 15 19 8 10 - - 0.0
28/07:50pm 9.4 5.3 6.1 80 1.6 NE 17 19 9 10 - - 0.0
28/07:40pm 9.7 5.0 5.3 74 2.1 NE 19 22 10 12 - - 0.0
28/07:30pm 9.0 4.9 2.3 63 2.9 NE 13 19 7 10 - - 0.0
28/07:20pm 8.3 4.3 2.7 68 2.5 NE 13 15 7 8 - - 0.0
28/07:10pm 8.5 4.9 3.0 68 2.4 NNE 11 13 6 7 - - 0.0
28/07:00pm 9.1 5.4 2.1 61 3.1 NNE 11 13 6 7 - - 0.0
28/06:50pm 8.8 5.1 2.1 63 2.9 NNE 11 13 6 7 - - 0.0
28/06:40pm 9.4 5.7 2.2 61 3.2 N 11 11 6 6 - - 0.0
28/06:30pm 9.9 6.6 2.2 59 3.4 N 9 9 5 5 - - 0.0
28/06:20pm 10.4 7.1 2.3 57 3.6 N 9 9 5 5 - - 0.0
28/06:10pm 10.8 7.5 2.5 56 3.7 N 9 9 5 5 - - 0.0
28/06:00pm 11.4 8.5 2.8 55 3.9 N 7 9 4 5 - - 0.0
28/05:50pm 12.2 8.6 2.7 52 4.3 N 11 13 6 7 - - 0.0
28/05:40pm 12.9 9.2 2.3 48 4.8 N 11 15 6 8 - - 0.0
28/05:30pm 13.3 9.2 2.1 46 5.1 NNW 13 17 7 9 - - 0.0
28/05:20pm 13.6 8.8 2.6 47 5.1 N 17 20 9 11 - - 0.0
28/05:10pm 14.0 9.6 2.9 47 5.2 NNW 15 17 8 9 - - 0.0
28/05:00pm 14.5 10.4 2.2 43 5.7 NW 13 15 7 8 - - 0.0
28/04:50pm 14.5 9.9 1.7 42 5.8 NNW 15 19 8 10 - - 0.0
28/04:40pm 14.7 9.8 2.1 42 5.8 NNW 17 19 9 10 - - 0.0
28/04:30pm 14.7 9.8 2.3 43 5.7 NNW 17 20 9 11 - - 0.0
28/04:20pm 15.0 9.9 1.0 38 6.3 NNW 17 20 9 11 - - 0.0
28/04:10pm 15.0 10.0 1.1 39 6.3 NNW 17 22 9 12 - - 0.0
28/04:00pm 15.2 9.9 -0.3 34 6.8 NNW 17 20 9 11 - - 0.0
28/03:50pm 15.2 9.9 -0.5 34 6.9 NNW 17 20 9 11 - - 0.0
28/03:40pm 15.4 9.9 0.5 36 6.7 NNW 19 24 10 13 - - 0.0
28/03:30pm 15.7 10.9 0.2 35 6.9 NW 15 19 8 10 - - 0.0
28/03:20pm 15.4 10.5 1.7 39 6.3 N 17 20 9 11 - - 0.0
28/03:10pm 15.6 10.7 -0.5 33 7.1 NNW 15 20 8 11 - - 0.0
28/03:00pm 15.5 10.8 0.9 37 6.6 NNW 15 24 8 13 - - 0.0
28/02:50pm 15.5 10.4 0.5 36 6.7 N 17 26 9 14 - - 0.0
28/02:40pm 15.5 10.3 -0.1 34 6.9 NNW 17 22 9 12 - - 0.0

Latest Capital City Observations: Canberra | Sydney | Melbourne | Brisbane | Adelaide | Perth | Hobart | Darwin

Other formats

Comma delimited format used in spreadsheet applications
http://www.bom.gov.au/fwo/IDN60903/IDN60903.99764.axf

JavaScript Object Notation format (JSON) in row-major order
http://www.bom.gov.au/fwo/IDN60903/IDN60903.99764.json

Data quality

Most of these data are generated automatically and are frequently updated. Quality checks on data are not normally performed. It is possible for incorrect values to appear. Refer to information at About Latest Weather Observations and please check the disclaimer before using these data.